createdAt,value
2022-11-21T00:02:00.429Z,-1.81
2022-11-21T00:07:01.921Z,-1.74
2022-11-21T00:12:03.482Z,-1.68
2022-11-21T00:17:04.873Z,-1.66
2022-11-21T00:22:06.381Z,-1.70
2022-11-21T00:27:07.782Z,-1.66
2022-11-21T00:32:09.199Z,-1.69
2022-11-21T00:37:10.616Z,-1.79
2022-11-21T00:42:12.049Z,-1.90
2022-11-21T00:47:13.451Z,-1.93
2022-11-21T00:52:16.032Z,-1.91
2022-11-21T00:57:17.459Z,-1.92
2022-11-21T01:02:18.956Z,-1.80
2022-11-21T01:07:20.500Z,-1.67
2022-11-21T01:12:22.337Z,-1.53
2022-11-21T01:17:23.760Z,-1.56
2022-11-21T01:22:25.226Z,-1.65
2022-11-21T01:27:26.623Z,-1.58
2022-11-21T01:32:28.031Z,-1.51
2022-11-21T01:37:29.660Z,-1.22
2022-11-21T01:42:48.977Z,-1.21
2022-11-21T01:47:50.615Z,-1.16
2022-11-21T01:52:52.016Z,-1.19
2022-11-21T01:57:53.426Z,-1.16
2022-11-21T02:03:02.276Z,-1.17
2022-11-21T02:08:12.662Z,-1.01
2022-11-21T02:13:14.296Z,-0.96
2022-11-21T02:18:15.696Z,-0.93
2022-11-21T02:23:31.986Z,-0.82
2022-11-21T02:28:33.809Z,-0.67
2022-11-21T02:33:35.399Z,-0.56
2022-11-21T02:38:38.780Z,-0.50
2022-11-21T02:43:47.854Z,-0.47
2022-11-21T02:48:49.409Z,-0.49
2022-11-21T02:53:50.805Z,-0.46
2022-11-21T02:58:52.225Z,-0.35
2022-11-21T03:03:53.628Z,-0.23
2022-11-21T03:08:55.081Z,-0.11
2022-11-21T03:13:56.490Z,-0.08
2022-11-21T03:18:58.088Z,-0.03
2022-11-21T03:23:59.494Z,0.02
2022-11-21T03:29:01.029Z,0.06
2022-11-21T03:34:02.621Z,-0.04
2022-11-21T03:39:04.517Z,0.15
2022-11-21T03:44:08.795Z,0.09
2022-11-21T03:49:11.163Z,0.19
2022-11-21T03:54:12.647Z,0.11
2022-11-21T03:59:14.047Z,0.06
2022-11-21T04:04:15.462Z,0.02
2022-11-21T04:09:16.884Z,0.02
2022-11-21T04:14:18.287Z,0.11
2022-11-21T04:19:19.775Z,0.10
2022-11-21T04:24:21.187Z,0.21
2022-11-21T04:29:22.649Z,0.20
2022-11-21T04:34:24.092Z,0.17
2022-11-21T04:39:25.535Z,0.12
2022-11-21T04:44:28.597Z,0.21
2022-11-21T04:49:30.214Z,0.22
2022-11-21T04:54:33.231Z,0.25
2022-11-21T04:59:34.629Z,0.26
2022-11-21T05:04:36.039Z,0.16
2022-11-21T05:09:37.495Z,0.22
2022-11-21T05:14:38.901Z,0.27
2022-11-21T05:19:40.304Z,0.37
2022-11-21T05:24:41.704Z,0.42
2022-11-21T05:29:43.208Z,0.46
2022-11-21T05:34:44.652Z,0.54
2022-11-21T05:39:46.046Z,0.50
2022-11-21T05:44:47.446Z,0.51
2022-11-21T05:49:48.876Z,0.51
2022-11-21T05:54:50.287Z,0.57
2022-11-21T05:59:51.806Z,0.53
2022-11-21T06:04:53.251Z,0.51
2022-11-21T06:09:54.687Z,0.49
2022-11-21T06:14:56.084Z,0.54
2022-11-21T06:19:57.574Z,0.54
2022-11-21T06:24:59.000Z,0.57
2022-11-21T06:30:00.415Z,0.59
2022-11-21T06:35:01.810Z,0.54
2022-11-21T06:40:03.439Z,0.56
2022-11-21T06:45:05.339Z,0.53
2022-11-21T06:50:07.748Z,0.54
2022-11-21T06:55:10.750Z,0.55
2022-11-21T07:00:12.815Z,0.58
2022-11-21T07:05:14.365Z,0.54
2022-11-21T07:10:15.862Z,0.72
2022-11-21T07:15:17.281Z,0.67
2022-11-21T07:20:18.877Z,0.81
2022-11-21T07:25:20.281Z,0.90
2022-11-21T07:30:21.706Z,0.97
2022-11-21T07:35:23.536Z,1.03
2022-11-21T07:40:25.274Z,1.03
2022-11-21T07:45:26.704Z,1.24
2022-11-21T07:50:28.426Z,1.33
2022-11-21T07:55:30.426Z,1.38
2022-11-21T08:00:33.896Z,1.42
2022-11-21T08:05:42.836Z,1.52
2022-11-21T08:10:45.699Z,1.62
2022-11-21T08:15:47.174Z,1.73
2022-11-21T08:20:48.598Z,1.87
2022-11-21T08:25:51.872Z,2.08
2022-11-21T08:30:53.606Z,2.31
2022-11-21T08:35:55.083Z,2.40
2022-11-21T08:41:17.762Z,2.51
2022-11-21T08:46:19.424Z,2.62
2022-11-21T08:51:21.818Z,2.73
2022-11-21T08:56:23.379Z,2.74
2022-11-21T09:01:24.827Z,2.74
2022-11-21T09:06:26.371Z,2.82
2022-11-21T09:11:27.884Z,2.98
2022-11-21T09:16:47.762Z,3.09
2022-11-21T09:21:50.111Z,3.15
2022-11-21T09:26:51.638Z,3.19
2022-11-21T09:31:53.058Z,3.26
2022-11-21T09:36:55.549Z,3.30
2022-11-21T09:42:09.023Z,3.25
2022-11-21T09:47:21.552Z,3.18
2022-11-21T09:52:27.989Z,3.39
2022-11-21T09:57:34.637Z,3.42
2022-11-21T10:02:36.921Z,3.54
2022-11-21T10:07:38.639Z,3.51
2022-11-21T10:13:43.362Z,3.76
2022-11-21T10:18:55.533Z,4.03
2022-11-21T10:24:07.574Z,4.26
2022-11-21T10:29:19.255Z,4.49
2022-11-21T10:34:24.290Z,4.70
2022-11-21T10:39:50.928Z,4.80
2022-11-21T10:45:11.092Z,4.91
2022-11-21T10:50:25.156Z,5.02
2022-11-21T10:55:26.613Z,5.05
2022-11-21T11:00:28.104Z,5.13
2022-11-21T11:05:33.801Z,5.12
2022-11-21T11:10:38.577Z,4.98
2022-11-21T11:15:54.216Z,4.83
2022-11-21T11:21:20.480Z,4.86
2022-11-21T11:26:28.201Z,5.04
2022-11-21T11:31:40.294Z,5.19
2022-11-21T11:36:56.471Z,5.18
2022-11-21T11:42:32.066Z,5.31
2022-11-21T11:47:43.274Z,5.44
2022-11-21T11:53:04.229Z,5.57
2022-11-21T11:58:12.237Z,5.72
2022-11-21T12:03:59.051Z,5.81
2022-11-21T12:09:28.280Z,5.81
2022-11-21T12:15:08.495Z,5.77
2022-11-21T12:20:22.835Z,6.05
2022-11-21T12:25:34.931Z,5.81
2022-11-21T12:30:54.590Z,5.55
2022-11-21T12:36:18.449Z,5.11
2022-11-21T12:41:51.369Z,5.01
2022-11-21T12:47:11.964Z,5.01
2022-11-21T12:52:39.843Z,5.01
2022-11-21T12:58:04.985Z,4.45
2022-11-21T13:03:33.870Z,4.59
2022-11-21T13:08:36.972Z,4.45
2022-11-21T13:13:43.907Z,4.70
2022-11-21T13:18:48.365Z,4.43
2022-11-21T13:23:49.796Z,4.30
2022-11-21T13:29:06.918Z,4.57
2022-11-21T13:34:37.353Z,4.15
2022-11-21T13:39:38.928Z,4.35
2022-11-21T13:44:41.326Z,4.20
2022-11-21T13:50:05.047Z,4.19
2022-11-21T13:55:33.778Z,3.85
2022-11-21T14:01:12.468Z,3.64
2022-11-21T14:06:33.815Z,3.68
2022-11-21T14:11:49.527Z,3.86
2022-11-21T14:16:59.296Z,3.83
2022-11-21T14:22:01.149Z,3.61
2022-11-21T14:27:06.819Z,3.55
2022-11-21T14:32:15.178Z,3.42
2022-11-21T14:37:16.846Z,3.02
2022-11-21T14:42:18.490Z,3.49
2022-11-21T14:47:26.290Z,3.29
2022-11-21T14:52:31.751Z,3.54
2022-11-21T14:57:37.810Z,3.36
2022-11-21T15:02:39.754Z,3.25
2022-11-21T15:07:44.182Z,3.21
2022-11-21T15:12:48.753Z,3.14
2022-11-21T15:18:25.987Z,3.33
2022-11-21T15:23:40.279Z,2.91
2022-11-21T15:28:54.883Z,2.87
2022-11-21T15:39:28.038Z,3.12
2022-11-21T15:44:29.908Z,2.72
2022-11-21T15:49:33.228Z,2.82
2022-11-21T15:54:35.195Z,2.18
2022-11-21T15:57:15.754Z,2.88
2022-11-21T15:59:36.767Z,2.33
2022-11-21T16:04:38.376Z,2.37
2022-11-21T16:09:40.979Z,2.60
2022-11-21T16:14:42.565Z,2.64
2022-11-21T16:19:45.613Z,2.62
2022-11-21T16:24:47.240Z,2.35
2022-11-21T16:29:48.875Z,2.35
2022-11-21T16:34:51.663Z,2.50
2022-11-21T16:39:53.211Z,2.45
2022-11-21T16:44:54.759Z,2.29
2022-11-21T16:49:56.539Z,2.23
2022-11-21T16:54:58.163Z,2.10
2022-11-21T17:00:00.687Z,2.21
2022-11-21T17:05:02.451Z,2.22
2022-11-21T17:10:04.367Z,2.31
2022-11-21T17:15:09.111Z,2.02
2022-11-21T17:20:10.977Z,2.17
2022-11-21T17:25:12.884Z,2.21
2022-11-21T17:30:15.889Z,2.19
2022-11-21T17:35:17.536Z,2.28
2022-11-21T17:40:19.092Z,2.33
2022-11-21T17:45:20.657Z,1.95
2022-11-21T17:50:22.331Z,2.18
2022-11-21T17:55:23.894Z,2.02
2022-11-21T18:00:25.438Z,2.40
2022-11-21T18:05:26.988Z,2.28
2022-11-21T18:10:42.642Z,2.22
2022-11-21T18:15:45.198Z,2.06
2022-11-21T18:20:46.957Z,1.65
2022-11-21T18:25:48.499Z,1.86
2022-11-21T18:30:50.089Z,1.81
2022-11-21T18:35:51.622Z,1.88
2022-11-21T18:40:53.195Z,1.99
2022-11-21T18:45:54.739Z,1.91
2022-11-21T18:50:56.747Z,2.20
2022-11-21T18:55:59.248Z,2.16
2022-11-21T19:01:02.276Z,2.08
2022-11-21T19:06:07.774Z,2.11
2022-11-21T19:11:11.841Z,2.10
2022-11-21T19:16:16.661Z,2.00
2022-11-21T19:21:18.389Z,1.95
2022-11-21T19:26:22.677Z,2.06
2022-11-21T19:31:24.683Z,2.10
2022-11-21T19:36:27.062Z,2.13
2022-11-21T19:41:31.046Z,2.08
2022-11-21T19:46:35.456Z,2.20
2022-11-21T19:51:41.922Z,2.25
2022-11-21T19:56:43.589Z,2.35
2022-11-21T20:01:49.617Z,2.39
2022-11-21T20:06:54.956Z,2.42
2022-11-21T20:11:56.591Z,2.42
2022-11-21T20:16:58.178Z,2.45
2022-11-21T20:22:00.172Z,2.45
2022-11-21T20:27:01.825Z,2.40
2022-11-21T20:32:03.915Z,2.42
2022-11-21T20:37:05.714Z,2.45
2022-11-21T20:42:08.297Z,2.43
2022-11-21T20:47:10.082Z,2.40
2022-11-21T20:57:33.263Z,2.37
2022-11-21T21:02:34.822Z,2.41
2022-11-21T21:07:36.581Z,2.44
2022-11-21T21:12:38.579Z,2.49
2022-11-21T21:17:40.136Z,2.37
2022-11-21T21:22:41.847Z,2.38
2022-11-21T21:27:43.458Z,2.25
2022-11-21T21:32:45.601Z,2.31
2022-11-21T21:37:48.385Z,2.29
2022-11-21T21:42:50.020Z,2.20
2022-11-21T21:47:51.587Z,2.18
2022-11-21T21:52:53.176Z,2.21
2022-11-21T21:57:55.919Z,2.15
2022-11-21T22:02:57.470Z,2.17
2022-11-21T22:07:59.675Z,2.14
2022-11-21T22:13:01.210Z,2.16
2022-11-21T22:18:02.795Z,2.11
2022-11-21T22:23:04.374Z,1.95
2022-11-21T22:28:06.093Z,2.04
2022-11-21T22:33:07.845Z,2.09
2022-11-21T22:38:09.439Z,1.99
2022-11-21T22:43:11.075Z,2.00
2022-11-21T22:48:14.439Z,2.05
2022-11-21T22:53:16.022Z,2.05
2022-11-21T22:58:17.572Z,2.15
2022-11-21T23:03:19.172Z,2.24
2022-11-21T23:08:20.710Z,2.15
2022-11-21T23:13:22.304Z,2.16
2022-11-21T23:18:23.916Z,2.11
2022-11-21T23:23:25.574Z,2.15
2022-11-21T23:28:28.522Z,2.16
2022-11-21T23:33:30.091Z,2.12
2022-11-21T23:38:31.925Z,2.13
2022-11-21T23:43:33.854Z,2.14
2022-11-21T23:48:35.558Z,2.29
2022-11-21T23:53:37.133Z,2.31
2022-11-21T23:58:39.490Z,2.40
